createdAt,value
2023-02-11T00:01:14.691Z,95.31
2023-02-11T00:03:42.522Z,95.44
2023-02-11T00:06:11.953Z,95.32
2023-02-11T00:08:40.358Z,95.27
2023-02-11T00:11:08.658Z,95.45
2023-02-11T00:13:36.447Z,95.43
2023-02-11T00:16:09.852Z,95.55
2023-02-11T00:18:37.838Z,95.74
2023-02-11T00:21:09.832Z,95.84
2023-02-11T00:23:38.392Z,95.87
2023-02-11T00:26:12.698Z,96.02
2023-02-11T00:28:41.574Z,95.91
2023-02-11T00:31:14.052Z,96.17
2023-02-11T00:33:42.073Z,96.04
2023-02-11T00:36:14.515Z,96.18
2023-02-11T00:38:43.976Z,96.10
2023-02-11T00:41:13.055Z,96.23
2023-02-11T00:43:40.924Z,96.15
2023-02-11T00:46:09.484Z,96.38
2023-02-11T00:48:38.772Z,96.45
2023-02-11T00:51:06.875Z,96.34
2023-02-11T00:53:34.797Z,96.47
2023-02-11T00:56:03.055Z,96.51
2023-02-11T00:58:30.971Z,96.42
2023-02-11T01:00:58.947Z,96.30
2023-02-11T01:03:26.816Z,96.31
2023-02-11T01:05:56.382Z,96.28
2023-02-11T01:08:24.270Z,96.33
2023-02-11T01:10:57.012Z,96.28
2023-02-11T01:13:25.683Z,96.49
2023-02-11T01:15:55.125Z,96.58
2023-02-11T01:18:22.978Z,96.54
2023-02-11T01:20:52.581Z,96.34
2023-02-11T01:23:21.914Z,96.72
2023-02-11T01:25:50.559Z,96.83
2023-02-11T01:28:19.952Z,96.97
2023-02-11T01:30:47.964Z,97.23
2023-02-11T01:33:16.230Z,97.34
2023-02-11T01:35:44.582Z,97.38
2023-02-11T01:38:17.557Z,97.49
2023-02-11T01:40:52.437Z,97.65
2023-02-11T01:43:21.034Z,97.50
2023-02-11T01:45:59.892Z,97.61
2023-02-11T01:48:31.178Z,97.63
2023-02-11T01:51:05.224Z,97.65
2023-02-11T01:53:51.186Z,97.57
2023-02-11T01:56:39.297Z,97.71
2023-02-11T01:59:12.462Z,97.77
2023-02-11T02:01:45.913Z,97.67
2023-02-11T02:04:17.617Z,97.60
2023-02-11T02:06:51.756Z,97.76
2023-02-11T02:09:24.177Z,97.75
2023-02-11T02:11:53.403Z,97.67
2023-02-11T02:14:21.429Z,97.70
2023-02-11T02:16:49.508Z,97.74
2023-02-11T02:19:55.031Z,97.84
2023-02-11T02:22:54.197Z,97.70
2023-02-11T02:25:55.766Z,97.83
2023-02-11T02:28:53.150Z,97.82
2023-02-11T02:31:42.640Z,97.68
2023-02-11T02:34:16.703Z,97.73
2023-02-11T02:36:52.934Z,97.90
2023-02-11T02:39:25.043Z,98.03
2023-02-11T02:41:54.708Z,98.31
2023-02-11T02:44:22.735Z,98.65
2023-02-11T02:46:50.583Z,99.04
2023-02-11T02:49:19.740Z,99.18
2023-02-11T02:52:11.871Z,99.41
2023-02-11T02:54:59.989Z,99.66
2023-02-11T02:57:34.409Z,99.46
2023-02-11T03:00:15.745Z,99.72
2023-02-11T03:02:57.207Z,99.79
2023-02-11T03:05:34.670Z,99.68
2023-02-11T03:08:09.406Z,99.77
2023-02-11T03:10:41.299Z,99.78
2023-02-11T03:13:10.152Z,100.00
2023-02-11T03:15:41.876Z,100.00
2023-02-11T03:18:12.597Z,100.00
2023-02-11T03:20:44.448Z,100.00
2023-02-11T03:23:15.850Z,100.00
2023-02-11T03:25:51.430Z,100.00
2023-02-11T03:28:26.662Z,100.00
2023-02-11T03:31:01.051Z,100.00
2023-02-11T03:33:37.858Z,100.00
2023-02-11T03:36:12.018Z,100.00
2023-02-11T03:38:45.947Z,100.00
2023-02-11T03:41:17.174Z,100.00
2023-02-11T03:43:47.148Z,100.00
2023-02-11T03:46:17.767Z,100.00
2023-02-11T03:48:50.492Z,100.00
2023-02-11T03:51:22.021Z,100.00
2023-02-11T03:53:54.010Z,100.00
2023-02-11T03:56:24.620Z,100.00
2023-02-11T03:58:52.478Z,100.00
2023-02-11T04:01:20.312Z,100.00
2023-02-11T04:03:48.163Z,100.00
2023-02-11T04:06:16.021Z,100.00
2023-02-11T04:08:45.184Z,100.00
2023-02-11T04:11:12.976Z,100.00
2023-02-11T04:13:40.789Z,100.00
2023-02-11T04:16:08.882Z,100.00
2023-02-11T04:18:36.672Z,100.00
2023-02-11T04:21:04.672Z,100.00
2023-02-11T04:23:32.440Z,100.00
2023-02-11T04:26:01.618Z,100.00
2023-02-11T04:28:29.673Z,100.00
2023-02-11T04:30:57.557Z,100.00
2023-02-11T04:33:25.520Z,100.00
2023-02-11T04:35:53.334Z,100.00
2023-02-11T04:38:21.079Z,100.00
2023-02-11T04:40:48.869Z,100.00
2023-02-11T04:43:18.022Z,100.00
2023-02-11T04:45:45.855Z,100.00
2023-02-11T04:48:13.715Z,100.00
2023-02-11T04:50:42.677Z,100.00
2023-02-11T04:53:10.477Z,100.00
2023-02-11T04:55:38.232Z,100.00
2023-02-11T04:58:05.978Z,100.00
2023-02-11T05:00:35.127Z,100.00
2023-02-11T05:03:02.872Z,100.00
2023-02-11T05:05:30.651Z,100.00
2023-02-11T05:07:58.421Z,100.00
2023-02-11T05:10:26.233Z,100.00
2023-02-11T05:12:55.884Z,100.00
2023-02-11T05:15:23.894Z,100.00
2023-02-11T05:17:53.009Z,100.00
2023-02-11T05:20:21.100Z,100.00
2023-02-11T05:22:49.203Z,100.00
2023-02-11T05:25:17.030Z,100.00
2023-02-11T05:27:44.927Z,100.00
2023-02-11T05:30:13.343Z,100.00
2023-02-11T05:32:41.172Z,100.00
2023-02-11T05:35:10.531Z,100.00
2023-02-11T05:37:38.341Z,100.00
2023-02-11T05:40:07.188Z,100.00
2023-02-11T05:42:35.131Z,100.00
2023-02-11T05:45:02.945Z,100.00
2023-02-11T05:47:31.114Z,100.00
2023-02-11T05:49:58.885Z,100.00
2023-02-11T05:52:28.023Z,100.00
2023-02-11T05:54:55.825Z,100.00
2023-02-11T05:57:24.206Z,100.00
2023-02-11T05:59:52.003Z,100.00
2023-02-11T06:02:19.838Z,100.00
2023-02-11T06:04:47.857Z,100.00
2023-02-11T06:07:15.743Z,100.00
2023-02-11T06:09:45.085Z,100.00
2023-02-11T06:12:12.926Z,100.00
2023-02-11T06:14:40.713Z,100.00
2023-02-11T06:17:08.489Z,100.00
2023-02-11T06:19:36.362Z,100.00
2023-02-11T06:22:04.183Z,100.00
2023-02-11T06:24:58.623Z,100.00
2023-02-11T06:27:21.119Z,100.00
2023-02-11T06:29:49.629Z,100.00
2023-02-11T06:32:39.567Z,100.00
2023-02-11T06:35:05.507Z,100.00
2023-02-11T06:37:34.749Z,100.00
2023-02-11T06:40:02.531Z,100.00
2023-02-11T06:42:31.702Z,100.00
2023-02-11T06:44:59.507Z,100.00
2023-02-11T06:47:27.269Z,100.00
2023-02-11T06:49:55.057Z,100.00
2023-02-11T06:52:22.875Z,100.00
2023-02-11T06:54:50.646Z,100.00
2023-02-11T06:57:18.404Z,100.00
2023-02-11T06:59:47.523Z,100.00
2023-02-11T07:02:15.457Z,100.00
2023-02-11T07:04:44.035Z,100.00
2023-02-11T07:07:11.768Z,100.00
2023-02-11T07:09:39.580Z,100.00
2023-02-11T07:12:07.852Z,100.00
2023-02-11T07:14:35.686Z,100.00
2023-02-11T07:17:05.138Z,100.00
2023-02-11T07:19:33.035Z,100.00
2023-02-11T07:22:00.898Z,100.00
2023-02-11T07:24:28.672Z,100.00
2023-02-11T07:26:56.490Z,100.00
2023-02-11T07:29:24.282Z,100.00
2023-02-11T07:31:52.157Z,100.00
2023-02-11T07:34:21.397Z,100.00
2023-02-11T07:36:49.943Z,100.00
2023-02-11T07:39:17.782Z,100.00
2023-02-11T07:41:47.735Z,100.00
2023-02-11T07:44:15.819Z,100.00
2023-02-11T07:46:45.206Z,100.00
2023-02-11T07:49:13.574Z,100.00
2023-02-11T07:51:43.161Z,100.00
2023-02-11T07:54:12.422Z,100.00
2023-02-11T07:56:40.248Z,100.00
2023-02-11T07:59:08.106Z,100.00
2023-02-11T08:01:35.900Z,100.00
2023-02-11T08:04:05.093Z,100.00
2023-02-11T08:06:35.025Z,100.00
2023-02-11T08:09:07.859Z,100.00
2023-02-11T08:11:36.152Z,100.00
2023-02-11T08:14:04.198Z,100.00
2023-02-11T08:16:34.352Z,100.00
2023-02-11T08:19:04.162Z,100.00
2023-02-11T08:21:32.423Z,100.00
2023-02-11T08:24:02.098Z,100.00
2023-02-11T08:26:34.682Z,100.00
2023-02-11T08:29:06.407Z,100.00
2023-02-11T08:31:36.526Z,100.00
2023-02-11T08:34:04.908Z,100.00
2023-02-11T08:36:34.222Z,100.00
2023-02-11T08:39:18.210Z,100.00
2023-02-11T08:41:49.458Z,100.00
2023-02-11T08:44:17.795Z,100.00
2023-02-11T08:46:45.576Z,100.00
2023-02-11T08:49:13.400Z,100.00
2023-02-11T08:51:41.205Z,100.00
2023-02-11T08:54:10.258Z,100.00
2023-02-11T08:56:38.627Z,100.00
2023-02-11T08:59:09.153Z,100.00
2023-02-11T09:01:37.139Z,100.00
2023-02-11T09:04:05.252Z,100.00
2023-02-11T09:06:33.105Z,100.00
2023-02-11T09:09:00.916Z,100.00
2023-02-11T09:11:31.581Z,99.95
2023-02-11T09:14:01.333Z,99.60
2023-02-11T09:16:34.449Z,98.92
2023-02-11T09:19:04.525Z,98.38
2023-02-11T09:21:32.677Z,98.02
2023-02-11T09:24:00.507Z,97.86
2023-02-11T09:26:30.333Z,97.71
2023-02-11T09:28:58.937Z,97.52
2023-02-11T09:31:28.383Z,97.17
2023-02-11T09:33:59.726Z,96.95
2023-02-11T09:36:29.717Z,96.66
2023-02-11T09:38:59.458Z,96.51
2023-02-11T09:41:40.554Z,96.05
2023-02-11T09:44:11.229Z,96.00
2023-02-11T09:46:43.166Z,94.93
2023-02-11T09:49:20.844Z,94.98
2023-02-11T09:51:53.464Z,94.89
2023-02-11T09:54:39.816Z,94.26
2023-02-11T09:57:22.917Z,94.32
2023-02-11T09:59:54.646Z,93.58
2023-02-11T10:02:28.483Z,92.82
2023-02-11T10:05:19.288Z,92.29
2023-02-11T10:07:52.514Z,91.80
2023-02-11T10:10:38.075Z,91.04
2023-02-11T10:13:22.598Z,90.49
2023-02-11T10:15:59.460Z,89.60
2023-02-11T10:18:41.494Z,88.81
2023-02-11T10:21:21.944Z,88.74
2023-02-11T10:23:53.777Z,87.49
2023-02-11T10:26:22.305Z,87.02
2023-02-11T10:28:54.534Z,85.80
2023-02-11T10:31:26.132Z,84.91
2023-02-11T10:34:00.851Z,83.78
2023-02-11T10:36:33.914Z,82.71
2023-02-11T10:39:03.363Z,82.05
2023-02-11T10:41:35.015Z,81.43
2023-02-11T10:44:02.881Z,81.49
2023-02-11T10:46:34.454Z,80.65
2023-02-11T10:49:03.400Z,80.49
2023-02-11T10:51:34.440Z,79.84
2023-02-11T10:54:19.508Z,80.13
2023-02-11T10:56:50.815Z,80.34
2023-02-11T10:59:25.747Z,79.97
2023-02-11T11:01:55.437Z,79.64
2023-02-11T11:04:36.460Z,80.06
2023-02-11T11:07:19.758Z,79.79
2023-02-11T11:09:56.701Z,79.64
2023-02-11T11:12:28.792Z,80.15
2023-02-11T11:14:58.083Z,79.58
2023-02-11T11:17:29.111Z,78.58
2023-02-11T11:20:11.597Z,78.36
2023-02-11T11:22:41.636Z,77.10
2023-02-11T11:25:23.025Z,76.71
2023-02-11T11:27:52.200Z,76.08
2023-02-11T11:30:20.951Z,76.18
2023-02-11T11:32:48.797Z,75.77
2023-02-11T11:35:26.605Z,74.80
2023-02-11T11:38:01.773Z,74.91
2023-02-11T11:40:32.241Z,74.48
2023-02-11T11:43:06.865Z,74.12
2023-02-11T11:45:34.679Z,74.15
2023-02-11T11:48:07.798Z,74.13
2023-02-11T11:50:38.281Z,73.45
2023-02-11T11:53:14.935Z,73.58
2023-02-11T11:55:46.976Z,73.28
2023-02-11T11:58:18.778Z,73.30
2023-02-11T12:00:55.326Z,73.35
2023-02-11T12:03:49.541Z,73.57
2023-02-11T12:06:27.383Z,73.71
2023-02-11T12:09:05.971Z,73.65
2023-02-11T12:11:44.353Z,73.18
2023-02-11T12:14:21.524Z,73.14
2023-02-11T12:16:58.304Z,72.97
2023-02-11T12:19:59.610Z,73.02
2023-02-11T12:22:41.817Z,73.14
2023-02-11T12:25:28.147Z,73.14
2023-02-11T12:28:07.281Z,72.81
2023-02-11T12:31:02.250Z,72.52
2023-02-11T12:33:49.538Z,72.53
2023-02-11T12:36:27.419Z,72.18
2023-02-11T12:39:07.061Z,72.44
2023-02-11T12:42:06.728Z,72.65
2023-02-11T12:44:43.551Z,72.22
2023-02-11T12:47:21.479Z,71.59
2023-02-11T12:50:01.836Z,70.63
2023-02-11T12:52:44.132Z,69.51
2023-02-11T12:55:22.984Z,68.86
2023-02-11T12:57:57.168Z,68.33
2023-02-11T13:00:29.047Z,68.14
2023-02-11T13:03:05.173Z,68.38
2023-02-11T13:05:40.548Z,67.78
2023-02-11T13:08:15.602Z,67.48
2023-02-11T13:10:47.949Z,67.04
2023-02-11T13:13:22.428Z,66.61
2023-02-11T13:15:54.778Z,65.76
2023-02-11T13:18:33.605Z,65.38
2023-02-11T13:21:17.716Z,65.25
2023-02-11T13:23:51.804Z,64.34
2023-02-11T13:26:26.884Z,64.03
2023-02-11T13:29:07.862Z,63.89
2023-02-11T13:31:35.811Z,63.81
2023-02-11T13:34:03.882Z,63.54
2023-02-11T13:36:34.231Z,63.31
2023-02-11T13:39:05.703Z,63.41
2023-02-11T13:41:37.135Z,63.75
2023-02-11T13:44:22.331Z,64.10
2023-02-11T13:46:57.192Z,64.76
2023-02-11T13:49:30.723Z,64.85
2023-02-11T13:52:00.186Z,65.06
2023-02-11T13:54:33.324Z,64.37
2023-02-11T13:57:26.326Z,64.62
2023-02-11T13:59:57.133Z,64.61
2023-02-11T14:02:46.433Z,64.77
2023-02-11T14:05:40.912Z,65.04
2023-02-11T14:08:33.659Z,65.19
2023-02-11T14:11:03.689Z,64.76
2023-02-11T14:13:32.773Z,65.13
2023-02-11T14:16:11.097Z,65.66
2023-02-11T14:19:01.842Z,66.05
2023-02-11T14:21:36.754Z,66.31
2023-02-11T14:24:47.352Z,66.18
2023-02-11T14:27:22.821Z,66.66
2023-02-11T14:30:10.401Z,66.68
2023-02-11T14:32:51.690Z,66.66
2023-02-11T14:35:28.012Z,67.06
2023-02-11T14:38:03.068Z,67.11
2023-02-11T14:40:34.983Z,66.64
2023-02-11T14:43:13.134Z,66.57
2023-02-11T14:45:41.539Z,66.81
2023-02-11T14:48:17.043Z,66.42
2023-02-11T14:50:49.900Z,66.85
2023-02-11T14:53:21.160Z,66.80
2023-02-11T14:55:50.440Z,67.38
2023-02-11T14:58:20.972Z,67.22
2023-02-11T15:00:55.043Z,66.95
2023-02-11T15:03:33.976Z,67.43
2023-02-11T15:06:04.706Z,67.76
2023-02-11T15:08:33.412Z,67.98
2023-02-11T15:11:03.256Z,68.34
2023-02-11T15:13:33.925Z,68.25
2023-02-11T15:16:06.546Z,68.41
2023-02-11T15:18:40.178Z,68.54
2023-02-11T15:21:09.142Z,68.88
2023-02-11T15:23:38.989Z,68.94
2023-02-11T15:26:14.341Z,69.19
2023-02-11T15:28:52.509Z,69.47
2023-02-11T15:31:23.276Z,69.75
2023-02-11T15:33:53.292Z,69.75
2023-02-11T15:36:23.788Z,70.00
2023-02-11T15:39:30.421Z,70.55
2023-02-11T15:41:58.378Z,70.60
2023-02-11T15:44:30.817Z,70.96
2023-02-11T15:46:59.019Z,71.38
2023-02-11T15:49:28.448Z,72.01
2023-02-11T15:51:58.043Z,72.35
2023-02-11T15:54:29.360Z,72.64
2023-02-11T15:57:02.706Z,73.12
2023-02-11T15:59:35.328Z,73.05
2023-02-11T16:02:09.221Z,73.31
2023-02-11T16:04:38.907Z,73.78
2023-02-11T16:07:06.780Z,73.96
2023-02-11T16:09:36.292Z,74.02
2023-02-11T16:12:07.665Z,74.54
2023-02-11T16:14:39.260Z,74.73
2023-02-11T16:17:10.485Z,74.84
2023-02-11T16:19:44.998Z,74.92
2023-02-11T16:22:18.068Z,75.54
2023-02-11T16:24:48.623Z,75.51
2023-02-11T16:27:23.713Z,75.50
2023-02-11T16:29:52.643Z,75.85
2023-02-11T16:32:23.326Z,76.18
2023-02-11T16:34:55.067Z,76.18
2023-02-11T16:37:22.837Z,76.14
2023-02-11T16:39:51.026Z,76.52
2023-02-11T16:42:18.819Z,76.70
2023-02-11T16:44:46.644Z,76.72
2023-02-11T16:47:21.504Z,76.57
2023-02-11T16:49:49.456Z,76.87
2023-02-11T16:52:20.289Z,77.02
2023-02-11T16:54:48.095Z,76.87
2023-02-11T16:57:17.766Z,77.42
2023-02-11T16:59:46.055Z,77.35
2023-02-11T17:02:17.347Z,77.27
2023-02-11T17:04:45.684Z,77.77
2023-02-11T17:07:13.577Z,77.74
2023-02-11T17:09:42.750Z,77.92
2023-02-11T17:12:11.369Z,77.99
2023-02-11T17:14:47.297Z,78.26
2023-02-11T17:17:15.219Z,78.04
2023-02-11T17:19:43.326Z,78.45
2023-02-11T17:22:12.753Z,78.57
2023-02-11T17:24:47.191Z,78.77
2023-02-11T17:27:17.461Z,78.91
2023-02-11T17:29:45.255Z,79.48
2023-02-11T17:32:13.170Z,79.79
2023-02-11T17:34:40.982Z,79.55
2023-02-11T17:37:09.303Z,80.02
2023-02-11T17:39:37.313Z,80.45
2023-02-11T17:42:07.245Z,80.26
2023-02-11T17:44:35.732Z,80.30
2023-02-11T17:47:03.515Z,80.90
2023-02-11T17:49:31.332Z,80.88
2023-02-11T17:51:59.138Z,81.02
2023-02-11T17:54:26.936Z,81.37
2023-02-11T17:56:58.115Z,81.40
2023-02-11T17:59:31.601Z,81.90
2023-02-11T18:01:59.732Z,81.66
2023-02-11T18:04:27.589Z,82.08
2023-02-11T18:06:55.495Z,82.47
2023-02-11T18:09:23.261Z,82.52
2023-02-11T18:11:52.568Z,82.35
2023-02-11T18:14:21.014Z,82.84
2023-02-11T18:16:52.230Z,82.51
2023-02-11T18:19:21.012Z,82.88
2023-02-11T18:21:48.915Z,82.83
2023-02-11T18:24:17.096Z,83.14
2023-02-11T18:26:44.939Z,83.35
2023-02-11T18:29:12.693Z,83.01
2023-02-11T18:31:40.553Z,83.37
2023-02-11T18:34:10.667Z,83.08
2023-02-11T18:36:38.853Z,83.04
2023-02-11T18:39:07.186Z,83.32
2023-02-11T18:41:35.004Z,83.52
2023-02-11T18:44:04.532Z,83.21
2023-02-11T18:46:32.407Z,83.03
2023-02-11T18:49:00.307Z,83.19
2023-02-11T18:51:31.924Z,83.28
2023-02-11T18:53:59.901Z,83.38
2023-02-11T18:56:28.710Z,83.36
2023-02-11T18:58:57.256Z,83.64
2023-02-11T19:01:27.408Z,83.46
2023-02-11T19:03:57.218Z,83.84
2023-02-11T19:06:26.762Z,83.54
2023-02-11T19:08:59.909Z,83.90
2023-02-11T19:11:42.447Z,84.14
2023-02-11T19:14:11.196Z,83.78
2023-02-11T19:16:39.704Z,83.90
2023-02-11T19:19:08.859Z,83.85
2023-02-11T19:21:37.717Z,83.86
2023-02-11T19:24:09.366Z,83.87
2023-02-11T19:26:38.082Z,84.08
2023-02-11T19:29:07.067Z,84.13
2023-02-11T19:31:35.394Z,84.02
2023-02-11T19:34:04.719Z,83.84
2023-02-11T19:36:32.637Z,83.71
2023-02-11T19:39:00.970Z,84.06
2023-02-11T19:41:31.027Z,84.07
2023-02-11T19:43:59.002Z,84.18
2023-02-11T19:46:28.696Z,84.08
2023-02-11T19:48:56.725Z,84.12
2023-02-11T19:51:24.539Z,83.79
2023-02-11T19:53:52.384Z,84.16
2023-02-11T19:56:20.984Z,84.33
2023-02-11T19:58:50.352Z,84.34
2023-02-11T20:01:20.442Z,84.32
2023-02-11T20:03:50.417Z,84.34
2023-02-11T20:06:21.566Z,84.38
2023-02-11T20:08:49.212Z,83.87
2023-02-11T20:11:18.358Z,84.22
2023-02-11T20:13:46.675Z,83.98
2023-02-11T20:16:18.678Z,84.05
2023-02-11T20:18:47.808Z,84.25
2023-02-11T20:21:17.749Z,84.44
2023-02-11T20:23:46.584Z,84.00
2023-02-11T20:26:16.295Z,84.17
2023-02-11T20:28:44.483Z,84.04
2023-02-11T20:31:13.190Z,84.60
2023-02-11T20:33:43.659Z,84.06
2023-02-11T20:36:15.868Z,84.32
2023-02-11T20:38:43.861Z,84.21
2023-02-11T20:41:14.351Z,84.23
2023-02-11T20:43:45.795Z,84.54
2023-02-11T20:46:14.889Z,84.76
2023-02-11T20:48:44.414Z,84.38
2023-02-11T20:51:14.510Z,84.72
2023-02-11T20:53:44.347Z,84.88
2023-02-11T20:56:13.313Z,84.86
2023-02-11T20:58:41.712Z,84.90
2023-02-11T21:01:09.879Z,85.02
2023-02-11T21:03:37.824Z,85.07
2023-02-11T21:06:10.129Z,84.84
2023-02-11T21:08:39.760Z,84.76
2023-02-11T21:11:08.838Z,85.16
2023-02-11T21:13:36.926Z,84.71
2023-02-11T21:16:05.716Z,84.77
2023-02-11T21:18:34.212Z,84.84
2023-02-11T21:21:02.385Z,85.16
2023-02-11T21:23:31.584Z,85.32
2023-02-11T21:25:59.343Z,85.54
2023-02-11T21:28:27.353Z,85.60
2023-02-11T21:30:56.598Z,85.60
2023-02-11T21:33:25.279Z,85.47
2023-02-11T21:35:56.186Z,85.44
2023-02-11T21:38:24.299Z,85.50
2023-02-11T21:40:53.980Z,85.47
2023-02-11T21:43:25.611Z,85.89
2023-02-11T21:45:54.696Z,85.46
2023-02-11T21:48:23.751Z,85.92
2023-02-11T21:50:51.563Z,86.09
2023-02-11T21:53:19.453Z,86.09
2023-02-11T21:55:47.289Z,85.90
2023-02-11T21:58:16.438Z,85.81
2023-02-11T22:00:44.235Z,85.86
2023-02-11T22:03:12.955Z,85.72
2023-02-11T22:05:41.563Z,85.79
2023-02-11T22:08:09.366Z,85.58
2023-02-11T22:10:37.176Z,85.78
2023-02-11T22:13:04.985Z,86.46
2023-02-11T22:15:34.179Z,86.46
2023-02-11T22:18:02.001Z,86.45
2023-02-11T22:20:29.847Z,86.46
2023-02-11T22:22:57.661Z,86.39
2023-02-11T22:25:25.453Z,86.42
2023-02-11T22:27:53.232Z,86.34
2023-02-11T22:30:21.313Z,86.42
2023-02-11T22:32:50.918Z,86.32
2023-02-11T22:35:18.732Z,86.37
2023-02-11T22:37:46.516Z,86.32
2023-02-11T22:40:14.812Z,86.44
2023-02-11T22:42:42.608Z,86.20
2023-02-11T22:45:10.726Z,86.28
2023-02-11T22:47:38.942Z,86.28
2023-02-11T22:50:08.923Z,86.49
2023-02-11T22:52:37.120Z,86.32
2023-02-11T22:55:05.508Z,86.47
2023-02-11T22:57:33.330Z,86.61
2023-02-11T23:00:01.132Z,86.84
2023-02-11T23:02:29.033Z,86.83
2023-02-11T23:04:56.831Z,87.32
2023-02-11T23:07:26.049Z,87.33
2023-02-11T23:09:53.837Z,87.60
2023-02-11T23:12:21.661Z,87.58
2023-02-11T23:14:49.457Z,87.56
2023-02-11T23:17:17.296Z,87.58
2023-02-11T23:19:45.049Z,87.43
2023-02-11T23:22:12.841Z,87.58
2023-02-11T23:24:42.006Z,87.17
2023-02-11T23:27:09.773Z,87.39
2023-02-11T23:29:37.654Z,87.58
2023-02-11T23:32:05.818Z,87.13
2023-02-11T23:34:33.632Z,87.70
2023-02-11T23:37:01.543Z,87.47
2023-02-11T23:39:29.491Z,87.43
2023-02-11T23:41:59.527Z,87.29
2023-02-11T23:44:27.551Z,87.39
2023-02-11T23:46:55.357Z,87.56
2023-02-11T23:49:23.159Z,87.50
2023-02-11T23:51:50.970Z,87.56
2023-02-11T23:54:18.760Z,87.65
2023-02-11T23:56:46.930Z,87.30
2023-02-11T23:59:17.015Z,87.67
